sensor_id;sensor_type;location;lat;lon;timestamp;P1;durP1;ratioP1;P2;durP2;ratioP2
60869;SDS011;46710;43.680;4.132;2022-07-23T00:01:39;9.65;;;6.85;;
60869;SDS011;46710;43.680;4.132;2022-07-23T00:04:06;12.80;;;7.18;;
60869;SDS011;46710;43.680;4.132;2022-07-23T00:06:32;8.57;;;6.85;;
60869;SDS011;46710;43.680;4.132;2022-07-23T00:08:58;11.10;;;6.85;;
60869;SDS011;46710;43.680;4.132;2022-07-23T00:11:24;10.55;;;6.97;;
60869;SDS011;46710;43.680;4.132;2022-07-23T00:13:50;8.88;;;6.22;;
60869;SDS011;46710;43.680;4.132;2022-07-23T00:16:18;11.95;;;7.28;;
60869;SDS011;46710;43.680;4.132;2022-07-23T00:18:44;11.38;;;7.22;;
60869;SDS011;46710;43.680;4.132;2022-07-23T00:21:10;10.82;;;6.20;;
60869;SDS011;46710;43.680;4.132;2022-07-23T00:23:36;12.70;;;6.43;;
60869;SDS011;46710;43.680;4.132;2022-07-23T00:26:03;10.68;;;6.47;;
60869;SDS011;46710;43.680;4.132;2022-07-23T00:28:29;9.10;;;6.28;;
60869;SDS011;46710;43.680;4.132;2022-07-23T00:30:55;9.13;;;6.65;;
60869;SDS011;46710;43.680;4.132;2022-07-23T00:33:21;8.43;;;6.35;;
60869;SDS011;46710;43.680;4.132;2022-07-23T00:35:47;10.73;;;6.87;;
60869;SDS011;46710;43.680;4.132;2022-07-23T00:38:13;12.15;;;7.00;;
60869;SDS011;46710;43.680;4.132;2022-07-23T00:40:40;8.68;;;6.62;;
60869;SDS011;46710;43.680;4.132;2022-07-23T00:43:06;10.07;;;6.57;;
60869;SDS011;46710;43.680;4.132;2022-07-23T00:45:32;9.27;;;6.68;;
60869;SDS011;46710;43.680;4.132;2022-07-23T00:47:59;9.18;;;6.20;;
60869;SDS011;46710;43.680;4.132;2022-07-23T00:50:25;8.57;;;6.82;;
60869;SDS011;46710;43.680;4.132;2022-07-23T00:52:51;10.70;;;6.43;;
60869;SDS011;46710;43.680;4.132;2022-07-23T00:55:18;10.35;;;6.82;;
60869;SDS011;46710;43.680;4.132;2022-07-23T00:57:44;9.40;;;6.45;;
60869;SDS011;46710;43.680;4.132;2022-07-23T01:00:11;9.50;;;6.60;;
60869;SDS011;46710;43.680;4.132;2022-07-23T01:02:38;11.85;;;7.05;;
60869;SDS011;46710;43.680;4.132;2022-07-23T01:05:04;11.68;;;6.68;;
60869;SDS011;46710;43.680;4.132;2022-07-23T01:07:31;11.38;;;6.80;;
60869;SDS011;46710;43.680;4.132;2022-07-23T01:09:57;11.05;;;6.85;;
60869;SDS011;46710;43.680;4.132;2022-07-23T01:12:23;11.52;;;7.20;;
60869;SDS011;46710;43.680;4.132;2022-07-23T01:14:59;11.32;;;7.40;;
60869;SDS011;46710;43.680;4.132;2022-07-23T01:17:26;10.40;;;6.95;;
60869;SDS011;46710;43.680;4.132;2022-07-23T01:19:52;11.02;;;7.20;;
60869;SDS011;46710;43.680;4.132;2022-07-23T01:22:19;8.73;;;6.75;;
60869;SDS011;46710;43.680;4.132;2022-07-23T01:24:45;8.55;;;6.75;;
60869;SDS011;46710;43.680;4.132;2022-07-23T01:27:11;12.40;;;7.40;;
60869;SDS011;46710;43.680;4.132;2022-07-23T01:29:38;9.35;;;7.37;;
60869;SDS011;46710;43.680;4.132;2022-07-23T01:32:04;8.88;;;6.80;;
60869;SDS011;46710;43.680;4.132;2022-07-23T01:34:31;11.73;;;7.37;;
60869;SDS011;46710;43.680;4.132;2022-07-23T01:36:57;11.77;;;7.18;;
60869;SDS011;46710;43.680;4.132;2022-07-23T01:39:23;11.25;;;7.45;;
60869;SDS011;46710;43.680;4.132;2022-07-23T01:41:49;11.75;;;6.93;;
60869;SDS011;46710;43.680;4.132;2022-07-23T01:44:15;8.27;;;6.47;;
60869;SDS011;46710;43.680;4.132;2022-07-23T01:46:42;11.43;;;7.37;;
60869;SDS011;46710;43.680;4.132;2022-07-23T01:49:08;11.57;;;7.25;;
60869;SDS011;46710;43.680;4.132;2022-07-23T01:51:34;8.93;;;6.90;;
60869;SDS011;46710;43.680;4.132;2022-07-23T01:54:00;9.25;;;7.00;;
60869;SDS011;46710;43.680;4.132;2022-07-23T01:56:26;9.73;;;7.15;;
60869;SDS011;46710;43.680;4.132;2022-07-23T01:58:52;10.63;;;7.25;;
60869;SDS011;46710;43.680;4.132;2022-07-23T02:01:19;11.98;;;7.37;;
60869;SDS011;46710;43.680;4.132;2022-07-23T02:03:45;10.63;;;7.37;;
60869;SDS011;46710;43.680;4.132;2022-07-23T02:06:11;11.45;;;7.50;;
60869;SDS011;46710;43.680;4.132;2022-07-23T02:08:37;12.88;;;8.13;;
60869;SDS011;46710;43.680;4.132;2022-07-23T02:11:03;11.12;;;7.97;;
60869;SDS011;46710;43.680;4.132;2022-07-23T02:13:29;12.07;;;8.32;;
60869;SDS011;46710;43.680;4.132;2022-07-23T02:15:56;14.98;;;8.57;;
60869;SDS011;46710;43.680;4.132;2022-07-23T02:18:22;9.95;;;7.72;;
60869;SDS011;46710;43.680;4.132;2022-07-23T02:20:48;9.98;;;7.57;;
60869;SDS011;46710;43.680;4.132;2022-07-23T02:23:14;10.95;;;8.30;;
60869;SDS011;46710;43.680;4.132;2022-07-23T02:25:40;11.65;;;8.20;;
60869;SDS011;46710;43.680;4.132;2022-07-23T02:28:06;11.05;;;7.97;;
60869;SDS011;46710;43.680;4.132;2022-07-23T02:30:33;12.82;;;8.27;;
60869;SDS011;46710;43.680;4.132;2022-07-23T02:32:59;12.80;;;7.90;;
60869;SDS011;46710;43.680;4.132;2022-07-23T02:35:25;10.45;;;7.93;;
60869;SDS011;46710;43.680;4.132;2022-07-23T02:37:51;11.18;;;8.25;;
60869;SDS011;46710;43.680;4.132;2022-07-23T02:40:17;10.80;;;7.57;;
60869;SDS011;46710;43.680;4.132;2022-07-23T02:42:44;12.43;;;7.78;;
60869;SDS011;46710;43.680;4.132;2022-07-23T02:45:11;15.73;;;8.10;;
60869;SDS011;46710;43.680;4.132;2022-07-23T02:47:37;11.43;;;7.93;;
60869;SDS011;46710;43.680;4.132;2022-07-23T02:50:03;14.13;;;8.50;;
60869;SDS011;46710;43.680;4.132;2022-07-23T02:52:30;12.10;;;8.25;;
60869;SDS011;46710;43.680;4.132;2022-07-23T02:54:56;11.43;;;8.05;;
60869;SDS011;46710;43.680;4.132;2022-07-23T02:57:22;14.38;;;8.75;;
60869;SDS011;46710;43.680;4.132;2022-07-23T02:59:49;13.05;;;8.98;;
60869;SDS011;46710;43.680;4.132;2022-07-23T03:02:15;11.55;;;8.77;;
60869;SDS011;46710;43.680;4.132;2022-07-23T03:04:41;10.68;;;8.23;;
60869;SDS011;46710;43.680;4.132;2022-07-23T03:07:07;13.95;;;8.48;;
60869;SDS011;46710;43.680;4.132;2022-07-23T03:09:33;11.43;;;8.70;;
60869;SDS011;46710;43.680;4.132;2022-07-23T03:11:59;11.43;;;8.18;;
60869;SDS011;46710;43.680;4.132;2022-07-23T03:14:26;11.65;;;8.93;;
60869;SDS011;46710;43.680;4.132;2022-07-23T03:16:52;14.60;;;8.23;;
60869;SDS011;46710;43.680;4.132;2022-07-23T03:19:19;12.65;;;8.50;;
60869;SDS011;46710;43.680;4.132;2022-07-23T03:21:45;12.25;;;8.48;;
60869;SDS011;46710;43.680;4.132;2022-07-23T03:24:11;13.45;;;9.15;;
60869;SDS011;46710;43.680;4.132;2022-07-23T03:26:38;11.07;;;8.40;;
60869;SDS011;46710;43.680;4.132;2022-07-23T03:29:04;12.45;;;8.57;;
60869;SDS011;46710;43.680;4.132;2022-07-23T03:31:31;10.75;;;9.13;;
60869;SDS011;46710;43.680;4.132;2022-07-23T03:33:57;14.35;;;9.45;;
60869;SDS011;46710;43.680;4.132;2022-07-23T03:36:23;12.02;;;8.63;;
60869;SDS011;46710;43.680;4.132;2022-07-23T03:38:50;12.50;;;8.75;;
60869;SDS011;46710;43.680;4.132;2022-07-23T03:41:16;13.45;;;9.48;;
60869;SDS011;46710;43.680;4.132;2022-07-23T03:43:42;13.38;;;9.05;;
60869;SDS011;46710;43.680;4.132;2022-07-23T03:46:08;12.80;;;9.02;;
60869;SDS011;46710;43.680;4.132;2022-07-23T03:48:35;11.70;;;8.68;;
60869;SDS011;46710;43.680;4.132;2022-07-23T03:51:01;9.68;;;8.70;;
60869;SDS011;46710;43.680;4.132;2022-07-23T03:53:27;11.12;;;9.15;;
60869;SDS011;46710;43.680;4.132;2022-07-23T03:55:53;11.18;;;8.60;;
60869;SDS011;46710;43.680;4.132;2022-07-23T03:58:19;14.18;;;9.65;;
60869;SDS011;46710;43.680;4.132;2022-07-23T04:00:46;10.73;;;8.77;;
60869;SDS011;46710;43.680;4.132;2022-07-23T04:03:12;15.30;;;9.68;;
60869;SDS011;46710;43.680;4.132;2022-07-23T04:05:38;12.13;;;9.02;;
60869;SDS011;46710;43.680;4.132;2022-07-23T04:08:04;11.15;;;8.82;;
60869;SDS011;46710;43.680;4.132;2022-07-23T04:10:30;11.00;;;8.68;;
60869;SDS011;46710;43.680;4.132;2022-07-23T04:12:57;12.27;;;7.75;;
60869;SDS011;46710;43.680;4.132;2022-07-23T04:15:23;10.10;;;8.70;;
60869;SDS011;46710;43.680;4.132;2022-07-23T04:17:49;12.63;;;8.10;;
60869;SDS011;46710;43.680;4.132;2022-07-23T04:20:15;8.52;;;7.53;;
60869;SDS011;46710;43.680;4.132;2022-07-23T04:22:42;11.23;;;7.80;;
60869;SDS011;46710;43.680;4.132;2022-07-23T04:25:08;8.98;;;7.32;;
60869;SDS011;46710;43.680;4.132;2022-07-23T04:27:34;9.20;;;7.80;;
60869;SDS011;46710;43.680;4.132;2022-07-23T04:30:00;10.57;;;8.05;;
60869;SDS011;46710;43.680;4.132;2022-07-23T04:32:26;10.57;;;7.93;;
60869;SDS011;46710;43.680;4.132;2022-07-23T04:34:52;8.88;;;7.57;;
60869;SDS011;46710;43.680;4.132;2022-07-23T04:37:19;9.48;;;7.68;;
60869;SDS011;46710;43.680;4.132;2022-07-23T04:39:45;10.50;;;7.85;;
60869;SDS011;46710;43.680;4.132;2022-07-23T04:42:11;10.52;;;8.15;;
60869;SDS011;46710;43.680;4.132;2022-07-23T04:44:37;11.27;;;7.87;;
60869;SDS011;46710;43.680;4.132;2022-07-23T04:47:03;13.43;;;7.87;;
60869;SDS011;46710;43.680;4.132;2022-07-23T04:49:29;10.35;;;7.43;;
60869;SDS011;46710;43.680;4.132;2022-07-23T04:51:56;9.07;;;7.45;;
60869;SDS011;46710;43.680;4.132;2022-07-23T04:54:22;10.80;;;7.90;;
60869;SDS011;46710;43.680;4.132;2022-07-23T04:56:48;10.30;;;7.28;;
60869;SDS011;46710;43.680;4.132;2022-07-23T04:59:14;9.07;;;7.72;;
60869;SDS011;46710;43.680;4.132;2022-07-23T05:01:40;9.18;;;7.25;;
60869;SDS011;46710;43.680;4.132;2022-07-23T05:04:07;10.77;;;7.65;;
60869;SDS011;46710;43.680;4.132;2022-07-23T05:06:33;8.63;;;6.90;;
60869;SDS011;46710;43.680;4.132;2022-07-23T05:08:59;7.30;;;6.60;;
60869;SDS011;46710;43.680;4.132;2022-07-23T05:11:25;9.23;;;6.90;;
60869;SDS011;46710;43.680;4.132;2022-07-23T05:13:51;10.25;;;7.00;;
60869;SDS011;46710;43.680;4.132;2022-07-23T05:16:17;10.35;;;7.03;;
60869;SDS011;46710;43.680;4.132;2022-07-23T05:18:44;12.73;;;7.15;;
60869;SDS011;46710;43.680;4.132;2022-07-23T05:21:10;8.45;;;6.60;;
60869;SDS011;46710;43.680;4.132;2022-07-23T05:23:36;9.20;;;6.95;;
60869;SDS011;46710;43.680;4.132;2022-07-23T05:26:02;12.48;;;7.10;;
60869;SDS011;46710;43.680;4.132;2022-07-23T05:28:28;9.68;;;7.10;;
60869;SDS011;46710;43.680;4.132;2022-07-23T05:30:54;11.48;;;7.70;;
60869;SDS011;46710;43.680;4.132;2022-07-23T05:33:20;8.10;;;6.97;;
60869;SDS011;46710;43.680;4.132;2022-07-23T05:35:47;10.95;;;6.35;;
60869;SDS011;46710;43.680;4.132;2022-07-23T05:38:13;7.93;;;6.20;;
60869;SDS011;46710;43.680;4.132;2022-07-23T05:40:39;9.77;;;7.00;;
60869;SDS011;46710;43.680;4.132;2022-07-23T05:43:05;9.10;;;7.03;;
60869;SDS011;46710;43.680;4.132;2022-07-23T05:45:31;11.50;;;7.57;;
60869;SDS011;46710;43.680;4.132;2022-07-23T05:47:57;9.80;;;6.45;;
60869;SDS011;46710;43.680;4.132;2022-07-23T05:50:23;8.85;;;6.80;;
60869;SDS011;46710;43.680;4.132;2022-07-23T05:52:50;11.07;;;6.47;;
60869;SDS011;46710;43.680;4.132;2022-07-23T05:55:16;11.23;;;7.22;;
60869;SDS011;46710;43.680;4.132;2022-07-23T05:57:42;10.00;;;6.65;;
60869;SDS011;46710;43.680;4.132;2022-07-23T06:00:08;8.23;;;6.90;;
60869;SDS011;46710;43.680;4.132;2022-07-23T06:02:35;10.48;;;7.10;;
60869;SDS011;46710;43.680;4.132;2022-07-23T06:05:01;9.40;;;6.53;;
60869;SDS011;46710;43.680;4.132;2022-07-23T06:07:28;11.30;;;6.82;;
60869;SDS011;46710;43.680;4.132;2022-07-23T06:09:54;11.20;;;6.95;;
60869;SDS011;46710;43.680;4.132;2022-07-23T06:12:20;9.80;;;7.22;;
60869;SDS011;46710;43.680;4.132;2022-07-23T06:14:46;8.05;;;6.12;;
60869;SDS011;46710;43.680;4.132;2022-07-23T06:17:14;9.63;;;6.55;;
60869;SDS011;46710;43.680;4.132;2022-07-23T06:19:40;9.20;;;6.53;;
60869;SDS011;46710;43.680;4.132;2022-07-23T06:22:07;9.50;;;6.82;;
60869;SDS011;46710;43.680;4.132;2022-07-23T06:24:33;8.43;;;6.55;;
60869;SDS011;46710;43.680;4.132;2022-07-23T06:26:59;7.65;;;6.57;;
60869;SDS011;46710;43.680;4.132;2022-07-23T06:29:25;11.68;;;6.87;;
60869;SDS011;46710;43.680;4.132;2022-07-23T06:31:51;9.35;;;6.65;;
60869;SDS011;46710;43.680;4.132;2022-07-23T06:34:17;7.35;;;6.72;;
60869;SDS011;46710;43.680;4.132;2022-07-23T06:36:43;9.93;;;7.07;;
60869;SDS011;46710;43.680;4.132;2022-07-23T06:39:10;8.68;;;6.53;;
60869;SDS011;46710;43.680;4.132;2022-07-23T06:41:36;8.73;;;7.22;;
60869;SDS011;46710;43.680;4.132;2022-07-23T06:44:02;8.70;;;7.25;;
60869;SDS011;46710;43.680;4.132;2022-07-23T06:46:28;8.13;;;6.97;;
60869;SDS011;46710;43.680;4.132;2022-07-23T06:48:54;7.68;;;6.70;;
60869;SDS011;46710;43.680;4.132;2022-07-23T06:51:20;9.85;;;7.28;;
60869;SDS011;46710;43.680;4.132;2022-07-23T06:53:47;9.15;;;6.97;;
60869;SDS011;46710;43.680;4.132;2022-07-23T06:56:13;8.00;;;6.90;;
60869;SDS011;46710;43.680;4.132;2022-07-23T06:58:39;7.70;;;6.78;;
60869;SDS011;46710;43.680;4.132;2022-07-23T07:01:05;9.02;;;6.75;;
60869;SDS011;46710;43.680;4.132;2022-07-23T07:03:31;10.98;;;6.95;;
60869;SDS011;46710;43.680;4.132;2022-07-23T07:05:57;11.02;;;6.60;;
60869;SDS011;46710;43.680;4.132;2022-07-23T07:08:24;7.30;;;6.45;;
60869;SDS011;46710;43.680;4.132;2022-07-23T07:10:50;7.68;;;6.15;;
60869;SDS011;46710;43.680;4.132;2022-07-23T07:13:16;8.35;;;7.03;;
60869;SDS011;46710;43.680;4.132;2022-07-23T07:15:42;8.25;;;7.32;;
60869;SDS011;46710;43.680;4.132;2022-07-23T07:18:08;9.48;;;6.35;;
60869;SDS011;46710;43.680;4.132;2022-07-23T07:20:35;7.85;;;6.55;;
60869;SDS011;46710;43.680;4.132;2022-07-23T07:23:01;8.30;;;6.20;;
60869;SDS011;46710;43.680;4.132;2022-07-23T07:25:27;7.20;;;5.87;;
60869;SDS011;46710;43.680;4.132;2022-07-23T07:27:53;9.20;;;7.20;;
60869;SDS011;46710;43.680;4.132;2022-07-23T07:30:19;9.48;;;6.55;;
60869;SDS011;46710;43.680;4.132;2022-07-23T07:32:46;7.55;;;6.75;;
60869;SDS011;46710;43.680;4.132;2022-07-23T07:35:12;8.60;;;6.78;;
60869;SDS011;46710;43.680;4.132;2022-07-23T07:37:38;7.47;;;6.15;;
60869;SDS011;46710;43.680;4.132;2022-07-23T07:40:04;8.13;;;6.57;;
60869;SDS011;46710;43.680;4.132;2022-07-23T07:42:31;6.57;;;5.97;;
60869;SDS011;46710;43.680;4.132;2022-07-23T07:44:57;9.75;;;6.45;;
60869;SDS011;46710;43.680;4.132;2022-07-23T07:47:23;8.40;;;6.10;;
60869;SDS011;46710;43.680;4.132;2022-07-23T07:49:50;10.85;;;6.47;;
60869;SDS011;46710;43.680;4.132;2022-07-23T07:52:16;6.15;;;5.53;;
60869;SDS011;46710;43.680;4.132;2022-07-23T07:54:42;8.35;;;6.30;;
60869;SDS011;46710;43.680;4.132;2022-07-23T07:57:08;7.20;;;6.03;;
60869;SDS011;46710;43.680;4.132;2022-07-23T07:59:34;8.60;;;6.20;;
60869;SDS011;46710;43.680;4.132;2022-07-23T08:02:01;11.38;;;6.55;;
60869;SDS011;46710;43.680;4.132;2022-07-23T08:04:27;7.97;;;5.70;;
60869;SDS011;46710;43.680;4.132;2022-07-23T08:06:53;7.32;;;6.12;;
60869;SDS011;46710;43.680;4.132;2022-07-23T08:09:19;7.32;;;6.05;;
60869;SDS011;46710;43.680;4.132;2022-07-23T08:11:45;6.97;;;5.80;;
60869;SDS011;46710;43.680;4.132;2022-07-23T08:14:12;6.87;;;6.18;;
60869;SDS011;46710;43.680;4.132;2022-07-23T08:16:38;5.68;;;5.10;;
60869;SDS011;46710;43.680;4.132;2022-07-23T08:19:04;6.87;;;5.95;;
60869;SDS011;46710;43.680;4.132;2022-07-23T08:21:30;7.35;;;5.70;;
60869;SDS011;46710;43.680;4.132;2022-07-23T08:23:56;11.12;;;6.45;;
60869;SDS011;46710;43.680;4.132;2022-07-23T08:26:22;7.10;;;5.32;;
60869;SDS011;46710;43.680;4.132;2022-07-23T08:28:48;6.32;;;5.45;;
60869;SDS011;46710;43.680;4.132;2022-07-23T08:31:15;6.55;;;5.32;;
60869;SDS011;46710;43.680;4.132;2022-07-23T08:33:42;6.72;;;6.03;;
60869;SDS011;46710;43.680;4.132;2022-07-23T08:36:08;6.97;;;5.93;;
60869;SDS011;46710;43.680;4.132;2022-07-23T08:38:35;7.68;;;5.80;;
60869;SDS011;46710;43.680;4.132;2022-07-23T08:41:01;6.97;;;6.00;;
60869;SDS011;46710;43.680;4.132;2022-07-23T08:43:30;8.88;;;5.87;;
60869;SDS011;46710;43.680;4.132;2022-07-23T08:45:58;6.75;;;5.85;;
60869;SDS011;46710;43.680;4.132;2022-07-23T08:48:25;10.18;;;6.25;;
60869;SDS011;46710;43.680;4.132;2022-07-23T08:50:53;9.05;;;6.85;;
60869;SDS011;46710;43.680;4.132;2022-07-23T08:53:19;6.30;;;5.70;;
60869;SDS011;46710;43.680;4.132;2022-07-23T08:55:47;7.55;;;6.12;;
60869;SDS011;46710;43.680;4.132;2022-07-23T08:58:13;7.65;;;6.43;;
60869;SDS011;46710;43.680;4.132;2022-07-23T09:00:40;7.00;;;6.30;;
60869;SDS011;46710;43.680;4.132;2022-07-23T09:03:06;6.93;;;5.90;;
60869;SDS011;46710;43.680;4.132;2022-07-23T09:05:32;6.50;;;5.87;;
60869;SDS011;46710;43.680;4.132;2022-07-23T09:08:15;8.48;;;5.80;;
60869;SDS011;46710;43.680;4.132;2022-07-23T09:15:59;7.82;;;6.55;;
60869;SDS011;46710;43.680;4.132;2022-07-23T09:21:06;8.85;;;6.30;;
60869;SDS011;46710;43.680;4.132;2022-07-23T09:26:22;6.80;;;6.20;;
60869;SDS011;46710;43.680;4.132;2022-07-23T09:31:19;10.93;;;6.97;;
60869;SDS011;46710;43.680;4.132;2022-07-23T09:33:45;7.15;;;6.45;;
60869;SDS011;46710;43.680;4.132;2022-07-23T09:36:11;7.72;;;6.93;;
60869;SDS011;46710;43.680;4.132;2022-07-23T09:38:48;8.00;;;6.87;;
60869;SDS011;46710;43.680;4.132;2022-07-23T09:41:15;9.45;;;7.00;;
60869;SDS011;46710;43.680;4.132;2022-07-23T09:43:41;8.05;;;7.25;;
60869;SDS011;46710;43.680;4.132;2022-07-23T09:46:20;8.07;;;7.28;;
60869;SDS011;46710;43.680;4.132;2022-07-23T09:48:47;7.70;;;6.90;;
60869;SDS011;46710;43.680;4.132;2022-07-23T09:51:14;9.15;;;7.10;;
60869;SDS011;46710;43.680;4.132;2022-07-23T09:53:49;7.10;;;6.47;;
60869;SDS011;46710;43.680;4.132;2022-07-23T09:56:15;7.25;;;6.55;;
60869;SDS011;46710;43.680;4.132;2022-07-23T09:58:41;7.60;;;6.80;;
60869;SDS011;46710;43.680;4.132;2022-07-23T10:01:12;8.10;;;6.70;;
60869;SDS011;46710;43.680;4.132;2022-07-23T10:03:40;7.93;;;6.97;;
60869;SDS011;46710;43.680;4.132;2022-07-23T10:06:07;7.43;;;6.72;;
60869;SDS011;46710;43.680;4.132;2022-07-23T10:08:34;7.53;;;6.72;;
60869;SDS011;46710;43.680;4.132;2022-07-23T10:11:00;9.23;;;7.40;;
60869;SDS011;46710;43.680;4.132;2022-07-23T10:13:28;8.23;;;6.82;;
60869;SDS011;46710;43.680;4.132;2022-07-23T10:16:13;9.45;;;6.78;;
60869;SDS011;46710;43.680;4.132;2022-07-23T10:18:39;8.18;;;7.22;;
60869;SDS011;46710;43.680;4.132;2022-07-23T10:21:05;9.60;;;7.15;;
60869;SDS011;46710;43.680;4.132;2022-07-23T10:34:30;9.13;;;7.78;;
60869;SDS011;46710;43.680;4.132;2022-07-23T10:37:02;9.40;;;7.47;;
60869;SDS011;46710;43.680;4.132;2022-07-23T10:39:34;9.00;;;6.75;;
60869;SDS011;46710;43.680;4.132;2022-07-23T10:42:33;7.47;;;6.78;;
60869;SDS011;46710;43.680;4.132;2022-07-23T10:44:52;7.95;;;6.75;;
60869;SDS011;46710;43.680;4.132;2022-07-23T10:47:25;7.70;;;6.70;;
60869;SDS011;46710;43.680;4.132;2022-07-23T10:50:28;9.27;;;6.65;;
60869;SDS011;46710;43.680;4.132;2022-07-23T10:57:55;7.35;;;5.90;;
60869;SDS011;46710;43.680;4.132;2022-07-23T11:00:21;7.03;;;5.72;;
60869;SDS011;46710;43.680;4.132;2022-07-23T11:02:49;9.90;;;6.28;;
60869;SDS011;46710;43.680;4.132;2022-07-23T11:05:17;8.10;;;5.90;;
60869;SDS011;46710;43.680;4.132;2022-07-23T11:10:38;8.88;;;5.90;;
60869;SDS011;46710;43.680;4.132;2022-07-23T11:31:58;9.07;;;5.82;;
60869;SDS011;46710;43.680;4.132;2022-07-23T11:37:00;7.97;;;5.82;;
60869;SDS011;46710;43.680;4.132;2022-07-23T11:39:27;7.97;;;5.57;;
60869;SDS011;46710;43.680;4.132;2022-07-23T11:41:54;7.70;;;5.65;;
60869;SDS011;46710;43.680;4.132;2022-07-23T11:44:27;8.23;;;5.90;;
60869;SDS011;46710;43.680;4.132;2022-07-23T11:46:54;8.70;;;6.03;;
60869;SDS011;46710;43.680;4.132;2022-07-23T11:49:21;7.93;;;5.55;;
60869;SDS011;46710;43.680;4.132;2022-07-23T11:51:47;7.22;;;5.40;;
60869;SDS011;46710;43.680;4.132;2022-07-23T11:54:28;7.70;;;5.53;;
60869;SDS011;46710;43.680;4.132;2022-07-23T11:56:58;7.93;;;5.28;;
60869;SDS011;46710;43.680;4.132;2022-07-23T11:59:25;13.82;;;5.87;;
60869;SDS011;46710;43.680;4.132;2022-07-23T12:01:56;9.00;;;5.60;;
60869;SDS011;46710;43.680;4.132;2022-07-23T12:04:23;6.85;;;5.47;;
60869;SDS011;46710;43.680;4.132;2022-07-23T12:06:49;9.60;;;5.43;;
60869;SDS011;46710;43.680;4.132;2022-07-23T12:09:15;7.18;;;5.55;;
60869;SDS011;46710;43.680;4.132;2022-07-23T12:11:59;9.18;;;5.37;;
60869;SDS011;46710;43.680;4.132;2022-07-23T12:14:26;9.65;;;5.80;;
60869;SDS011;46710;43.680;4.132;2022-07-23T12:17:27;8.10;;;5.30;;
60869;SDS011;46710;43.680;4.132;2022-07-23T12:19:45;9.75;;;5.80;;
60869;SDS011;46710;43.680;4.132;2022-07-23T12:22:12;7.93;;;5.70;;
60869;SDS011;46710;43.680;4.132;2022-07-23T12:24:57;10.85;;;5.93;;
60869;SDS011;46710;43.680;4.132;2022-07-23T12:27:24;9.00;;;5.35;;
60869;SDS011;46710;43.680;4.132;2022-07-23T12:29:51;10.23;;;5.03;;
60869;SDS011;46710;43.680;4.132;2022-07-23T12:32:18;8.73;;;5.03;;
60869;SDS011;46710;43.680;4.132;2022-07-23T12:34:45;7.68;;;5.32;;
60869;SDS011;46710;43.680;4.132;2022-07-23T12:37:25;8.90;;;5.37;;
60869;SDS011;46710;43.680;4.132;2022-07-23T12:39:51;8.82;;;4.97;;
60869;SDS011;46710;43.680;4.132;2022-07-23T12:42:17;7.18;;;5.18;;
60869;SDS011;46710;43.680;4.132;2022-07-23T12:45:03;5.60;;;5.05;;
60869;SDS011;46710;43.680;4.132;2022-07-23T12:47:29;7.10;;;5.10;;
60869;SDS011;46710;43.680;4.132;2022-07-23T12:49:56;9.63;;;5.37;;
60869;SDS011;46710;43.680;4.132;2022-07-23T12:52:22;7.35;;;4.85;;
60869;SDS011;46710;43.680;4.132;2022-07-23T12:54:48;6.68;;;5.12;;
60869;SDS011;46710;43.680;4.132;2022-07-23T12:57:14;6.35;;;4.97;;
60869;SDS011;46710;43.680;4.132;2022-07-23T12:59:40;7.65;;;4.97;;
60869;SDS011;46710;43.680;4.132;2022-07-23T13:02:08;6.40;;;5.50;;
60869;SDS011;46710;43.680;4.132;2022-07-23T13:04:35;5.82;;;4.70;;
60869;SDS011;46710;43.680;4.132;2022-07-23T13:07:01;7.12;;;4.95;;
60869;SDS011;46710;43.680;4.132;2022-07-23T13:09:28;7.00;;;5.00;;
60869;SDS011;46710;43.680;4.132;2022-07-23T13:11:55;6.68;;;4.87;;
60869;SDS011;46710;43.680;4.132;2022-07-23T13:14:22;11.05;;;5.22;;
60869;SDS011;46710;43.680;4.132;2022-07-23T13:16:49;6.62;;;4.50;;
60869;SDS011;46710;43.680;4.132;2022-07-23T13:19:15;12.27;;;4.85;;
60869;SDS011;46710;43.680;4.132;2022-07-23T13:21:42;8.00;;;4.87;;
60869;SDS011;46710;43.680;4.132;2022-07-23T13:24:09;7.87;;;4.82;;
60869;SDS011;46710;43.680;4.132;2022-07-23T13:26:36;7.47;;;4.50;;
60869;SDS011;46710;43.680;4.132;2022-07-23T13:29:02;9.15;;;4.72;;
60869;SDS011;46710;43.680;4.132;2022-07-23T13:31:29;5.97;;;4.47;;
60869;SDS011;46710;43.680;4.132;2022-07-23T13:33:55;9.48;;;4.62;;
60869;SDS011;46710;43.680;4.132;2022-07-23T13:36:21;6.55;;;4.43;;
60869;SDS011;46710;43.680;4.132;2022-07-23T13:38:47;7.72;;;4.40;;
60869;SDS011;46710;43.680;4.132;2022-07-23T13:41:14;6.55;;;4.90;;
60869;SDS011;46710;43.680;4.132;2022-07-23T13:43:41;7.65;;;4.87;;
60869;SDS011;46710;43.680;4.132;2022-07-23T13:46:07;6.70;;;5.00;;
60869;SDS011;46710;43.680;4.132;2022-07-23T13:48:34;9.02;;;4.10;;
60869;SDS011;46710;43.680;4.132;2022-07-23T13:51:00;6.35;;;4.28;;
60869;SDS011;46710;43.680;4.132;2022-07-23T13:53:26;7.12;;;3.97;;
60869;SDS011;46710;43.680;4.132;2022-07-23T13:55:53;8.73;;;4.30;;
60869;SDS011;46710;43.680;4.132;2022-07-23T13:58:19;9.05;;;4.30;;
60869;SDS011;46710;43.680;4.132;2022-07-23T14:00:48;9.25;;;4.40;;
60869;SDS011;46710;43.680;4.132;2022-07-23T14:03:15;7.12;;;4.20;;
60869;SDS011;46710;43.680;4.132;2022-07-23T14:05:41;6.45;;;3.83;;
60869;SDS011;46710;43.680;4.132;2022-07-23T14:08:07;6.90;;;4.25;;
60869;SDS011;46710;43.680;4.132;2022-07-23T14:10:34;8.70;;;4.15;;
60869;SDS011;46710;43.680;4.132;2022-07-23T14:13:00;6.62;;;4.30;;
60869;SDS011;46710;43.680;4.132;2022-07-23T14:15:27;7.82;;;4.15;;
60869;SDS011;46710;43.680;4.132;2022-07-23T14:17:54;4.20;;;3.80;;
60869;SDS011;46710;43.680;4.132;2022-07-23T14:20:20;9.70;;;4.00;;
60869;SDS011;46710;43.680;4.132;2022-07-23T14:22:46;5.85;;;3.90;;
60869;SDS011;46710;43.680;4.132;2022-07-23T14:25:14;12.20;;;4.53;;
60869;SDS011;46710;43.680;4.132;2022-07-23T14:27:40;6.28;;;3.85;;
60869;SDS011;46710;43.680;4.132;2022-07-23T14:30:07;11.95;;;4.20;;
60869;SDS011;46710;43.680;4.132;2022-07-23T14:32:33;8.50;;;4.07;;
60869;SDS011;46710;43.680;4.132;2022-07-23T14:34:59;5.85;;;3.72;;
60869;SDS011;46710;43.680;4.132;2022-07-23T14:37:25;5.70;;;3.95;;
60869;SDS011;46710;43.680;4.132;2022-07-23T14:39:52;5.05;;;3.70;;
60869;SDS011;46710;43.680;4.132;2022-07-23T14:42:18;6.32;;;4.22;;
60869;SDS011;46710;43.680;4.132;2022-07-23T14:44:44;5.37;;;3.62;;
60869;SDS011;46710;43.680;4.132;2022-07-23T14:47:11;8.15;;;3.85;;
60869;SDS011;46710;43.680;4.132;2022-07-23T14:49:37;8.98;;;3.95;;
60869;SDS011;46710;43.680;4.132;2022-07-23T14:52:03;7.97;;;4.40;;
60869;SDS011;46710;43.680;4.132;2022-07-23T14:54:30;7.55;;;4.07;;
60869;SDS011;46710;43.680;4.132;2022-07-23T14:56:57;7.87;;;4.07;;
60869;SDS011;46710;43.680;4.132;2022-07-23T14:59:24;6.18;;;4.05;;
60869;SDS011;46710;43.680;4.132;2022-07-23T15:01:50;10.13;;;4.05;;
60869;SDS011;46710;43.680;4.132;2022-07-23T15:04:16;6.80;;;3.80;;
60869;SDS011;46710;43.680;4.132;2022-07-23T15:06:42;11.23;;;4.50;;
60869;SDS011;46710;43.680;4.132;2022-07-23T15:09:09;9.23;;;4.12;;
60869;SDS011;46710;43.680;4.132;2022-07-23T15:11:36;5.62;;;4.10;;
60869;SDS011;46710;43.680;4.132;2022-07-23T15:14:06;7.40;;;4.30;;
60869;SDS011;46710;43.680;4.132;2022-07-23T15:16:32;6.00;;;3.80;;
60869;SDS011;46710;43.680;4.132;2022-07-23T15:18:59;6.53;;;4.30;;
60869;SDS011;46710;43.680;4.132;2022-07-23T15:21:26;9.80;;;4.32;;
60869;SDS011;46710;43.680;4.132;2022-07-23T15:23:54;9.50;;;4.57;;
60869;SDS011;46710;43.680;4.132;2022-07-23T15:26:20;6.93;;;4.35;;
60869;SDS011;46710;43.680;4.132;2022-07-23T15:28:48;9.48;;;4.53;;
60869;SDS011;46710;43.680;4.132;2022-07-23T15:31:14;9.65;;;4.10;;
60869;SDS011;46710;43.680;4.132;2022-07-23T15:33:40;8.38;;;4.43;;
60869;SDS011;46710;43.680;4.132;2022-07-23T15:36:06;7.97;;;4.43;;